Time;durP1;ratioP1;P1;durP2;ratioP2;P2;SDS_P1;SDS_P2;PMS_P1;PMS_P2;Temp;Humidity;BMP_temperature;BMP_pressure;BME280_temperature;BME280_humidity;BME280_pressure;Samples;Min_cycle;Max_cycle;Signal;HPM_P1;HPM_P2
2023/03/06 00:01:08;;;;;;;6.88;3.83;;;;;;;;;;8211077;28;20062;-61
2023/03/06 00:05:08;;;;;;;5.40;3.88;;;;;;;;;;8216891;28;20644;-61
2023/03/06 00:09:09;;;;;;;5.00;3.38;;;;;;;;;;8217759;28;20527;-61
2023/03/06 00:13:14;;;;;;;5.72;3.33;;;;;;;;;;8215484;28;20032;-61
2023/03/06 00:17:14;;;;;;;5.03;3.47;;;;;;;;;;8217126;28;20042;-62
2023/03/06 00:21:15;;;;;;;4.93;3.55;;;;;;;;;;8216639;28;20424;-61
2023/03/06 00:25:17;;;;;;;5.90;3.90;;;;;;;;;;8218751;28;20026;-61
2023/03/06 00:29:17;;;;;;;5.85;3.78;;;;;;;;;;8220618;28;20030;-61
2023/03/06 00:33:17;;;;;;;7.73;3.97;;;;;;;;;;8225143;28;20142;-61
2023/03/06 00:37:17;;;;;;;6.70;3.85;;;;;;;;;;8225821;28;20322;-62
2023/03/06 00:41:18;;;;;;;5.10;4.07;;;;;;;;;;8223486;28;20030;-62
2023/03/06 00:45:19;;;;;;;7.65;4.88;;;;;;;;;;8226750;28;20030;-62
2023/03/06 00:49:19;;;;;;;6.23;4.13;;;;;;;;;;8223852;28;20038;-62
2023/03/06 00:53:19;;;;;;;6.03;3.97;;;;;;;;;;8228563;28;20772;-61
2023/03/06 00:57:19;;;;;;;7.32;4.03;;;;;;;;;;8225895;28;20476;-62
2023/03/06 01:01:19;;;;;;;7.20;4.50;;;;;;;;;;8226546;28;20058;-61
2023/03/06 01:05:20;;;;;;;7.20;4.50;;;;;;;;;;8224071;28;20022;-62
2023/03/06 01:09:20;;;;;;;5.97;4.32;;;;;;;;;;8222133;28;20026;-62
2023/03/06 01:13:20;;;;;;;6.50;4.00;;;;;;;;;;8222028;28;20037;-61
2023/03/06 01:17:20;;;;;;;5.03;3.83;;;;;;;;;;8222311;28;20043;-61
2023/03/06 01:21:20;;;;;;;8.00;3.90;;;;;;;;;;8223311;28;20262;-61
2023/03/06 01:25:21;;;;;;;7.05;4.65;;;;;;;;;;8227853;28;20034;-62
2023/03/06 01:29:22;;;;;;;6.75;4.47;;;;;;;;;;8224493;28;20030;-62
2023/03/06 01:33:22;;;;;;;8.30;4.75;;;;;;;;;;8224493;28;20853;-62
2023/03/06 01:37:22;;;;;;;7.45;4.97;;;;;;;;;;8225598;28;20129;-61
2023/03/06 01:41:23;;;;;;;8.40;4.40;;;;;;;;;;8222885;28;20111;-61
2023/03/06 01:45:23;;;;;;;9.88;5.22;;;;;;;;;;8224395;28;20038;-61
2023/03/06 01:49:25;;;;;;;6.68;4.63;;;;;;;;;;8222384;28;20034;-61
2023/03/06 01:53:25;;;;;;;7.70;4.57;;;;;;;;;;8222861;28;20537;-62
2023/03/06 01:57:28;;;;;;;9.45;4.90;;;;;;;;;;8223866;28;20458;-61
2023/03/06 02:01:29;;;;;;;8.75;4.70;;;;;;;;;;8223721;28;20723;-61
2023/03/06 02:05:30;;;;;;;8.07;4.95;;;;;;;;;;8225132;28;20034;-62
2023/03/06 02:09:31;;;;;;;6.70;4.68;;;;;;;;;;8223028;28;20034;-61
2023/03/06 02:13:31;;;;;;;7.53;4.90;;;;;;;;;;8222776;28;20029;-64
2023/03/06 02:17:32;;;;;;;8.23;5.03;;;;;;;;;;8222260;28;20562;-61
2023/03/06 02:21:34;;;;;;;8.88;5.07;;;;;;;;;;8222477;28;20058;-61
2023/03/06 02:25:39;;;;;;;11.88;4.93;;;;;;;;;;8224105;28;20110;-62
2023/03/06 02:29:39;;;;;;;8.32;5.40;;;;;;;;;;8221811;28;20026;-62
2023/03/06 02:33:39;;;;;;;7.85;5.15;;;;;;;;;;8220635;28;20073;-62
2023/03/06 02:37:39;;;;;;;7.38;4.88;;;;;;;;;;8221712;28;20025;-61
2023/03/06 02:41:40;;;;;;;8.95;5.60;;;;;;;;;;8224853;28;20539;-61
2023/03/06 02:45:44;;;;;;;10.38;6.30;;;;;;;;;;8222381;28;20041;-61
2023/03/06 02:49:44;;;;;;;7.25;5.30;;;;;;;;;;8220657;28;20711;-62
2023/03/06 02:53:44;;;;;;;10.20;5.82;;;;;;;;;;8221737;28;20036;-63
2023/03/06 02:57:44;;;;;;;7.35;5.22;;;;;;;;;;8224987;28;20030;-61
2023/03/06 03:01:46;;;;;;;8.50;5.90;;;;;;;;;;8222046;28;20082;-62
2023/03/06 03:05:46;;;;;;;9.95;5.57;;;;;;;;;;8225691;28;20412;-61
2023/03/06 03:09:46;;;;;;;7.47;5.47;;;;;;;;;;8222504;28;20050;-61
2023/03/06 03:13:46;;;;;;;8.70;5.63;;;;;;;;;;8227029;28;20030;-61
2023/03/06 03:17:47;;;;;;;9.50;5.93;;;;;;;;;;8226159;28;20124;-62
2023/03/06 03:21:47;;;;;;;10.13;5.55;;;;;;;;;;8230686;28;20032;-62
2023/03/06 03:25:47;;;;;;;10.30;5.55;;;;;;;;;;8230002;28;20416;-62
2023/03/06 03:29:47;;;;;;;11.00;6.40;;;;;;;;;;8226627;28;20048;-61
2023/03/06 03:33:47;;;;;;;10.73;6.43;;;;;;;;;;8230105;28;20125;-62
2023/03/06 03:37:47;;;;;;;9.10;6.05;;;;;;;;;;8228634;28;20019;-62
2023/03/06 03:41:48;;;;;;;9.80;6.72;;;;;;;;;;8225260;28;20080;-62
2023/03/06 03:45:48;;;;;;;11.35;6.35;;;;;;;;;;8229805;28;20096;-61
2023/03/06 03:49:48;;;;;;;9.25;6.47;;;;;;;;;;8228551;28;20099;-61
2023/03/06 03:53:48;;;;;;;9.98;6.72;;;;;;;;;;8228292;28;20026;-61
2023/03/06 03:57:48;;;;;;;11.13;7.32;;;;;;;;;;8229612;28;20117;-61
2023/03/06 04:01:49;;;;;;;9.55;6.38;;;;;;;;;;8227607;28;20034;-62
2023/03/06 04:05:52;;;;;;;14.20;8.02;;;;;;;;;;8226051;28;20026;-62
2023/03/06 04:09:52;;;;;;;10.93;6.93;;;;;;;;;;8227130;28;20786;-62
2023/03/06 04:13:53;;;;;;;10.52;6.75;;;;;;;;;;8227638;28;20026;-62
2023/03/06 04:17:53;;;;;;;11.82;7.03;;;;;;;;;;8226938;28;20037;-62
2023/03/06 04:21:53;;;;;;;10.82;7.10;;;;;;;;;;8225568;28;20037;-62
2023/03/06 04:25:53;;;;;;;11.18;7.10;;;;;;;;;;8219642;28;20066;-62
2023/03/06 04:29:55;;;;;;;11.38;7.18;;;;;;;;;;8221523;28;20475;-62
2023/03/06 04:33:55;;;;;;;10.45;6.97;;;;;;;;;;8221970;28;20053;-62
2023/03/06 04:37:55;;;;;;;16.53;7.50;;;;;;;;;;8220501;28;20022;-62
2023/03/06 04:41:55;;;;;;;13.27;7.32;;;;;;;;;;8221924;28;20356;-64
2023/03/06 04:45:56;;;;;;;11.30;7.50;;;;;;;;;;8221140;28;20153;-62
2023/03/06 04:49:57;;;;;;;11.20;7.93;;;;;;;;;;8216307;28;20372;-62
2023/03/06 04:53:57;;;;;;;13.52;7.93;;;;;;;;;;8216586;28;20034;-62
2023/03/06 04:57:57;;;;;;;14.25;7.85;;;;;;;;;;8214056;28;20026;-62
2023/03/06 05:01:58;;;;;;;11.35;7.70;;;;;;;;;;8217274;28;20049;-61
2023/03/06 05:05:58;;;;;;;11.18;7.55;;;;;;;;;;8213629;28;20077;-62
2023/03/06 05:09:59;;;;;;;10.75;7.10;;;;;;;;;;8215315;28;20493;-62
2023/03/06 05:13:59;;;;;;;12.30;7.78;;;;;;;;;;8216735;28;20030;-62
2023/03/06 05:17:59;;;;;;;15.05;8.60;;;;;;;;;;8242420;28;20040;-61
2023/03/06 05:21:59;;;;;;;11.10;7.20;;;;;;;;;;8248806;28;20042;-61
2023/03/06 05:26:00;;;;;;;12.20;7.43;;;;;;;;;;8250652;28;20087;-62
2023/03/06 05:30:00;;;;;;;11.55;7.55;;;;;;;;;;8251122;28;20022;-61
2023/03/06 05:34:00;;;;;;;9.90;6.93;;;;;;;;;;8212887;28;20085;-61
2023/03/06 05:38:00;;;;;;;16.20;7.32;;;;;;;;;;8214715;28;20040;-62
2023/03/06 05:42:00;;;;;;;13.80;8.05;;;;;;;;;;8214867;28;20040;-61
2023/03/06 05:46:01;;;;;;;10.82;7.20;;;;;;;;;;8216805;28;20046;-62
2023/03/06 05:50:03;;;;;;;11.35;7.45;;;;;;;;;;8209177;28;20105;-61
2023/03/06 05:54:03;;;;;;;14.80;8.43;;;;;;;;;;8215717;28;20030;-62
2023/03/06 05:58:03;;;;;;;13.00;7.88;;;;;;;;;;8214930;28;20022;-62
2023/03/06 06:02:04;;;;;;;21.05;8.18;;;;;;;;;;8214249;28;20876;-62
2023/03/06 06:06:05;;;;;;;14.07;8.63;;;;;;;;;;8213132;28;20040;-62
2023/03/06 06:10:06;;;;;;;13.57;8.82;;;;;;;;;;8213807;28;20073;-62
2023/03/06 06:14:06;;;;;;;12.75;8.32;;;;;;;;;;8215481;28;20425;-62
2023/03/06 06:18:06;;;;;;;17.17;8.57;;;;;;;;;;8214883;28;20030;-61
2023/03/06 06:22:06;;;;;;;12.95;8.63;;;;;;;;;;8213045;28;20172;-61
2023/03/06 06:26:07;;;;;;;12.80;8.30;;;;;;;;;;8214264;28;20034;-62
2023/03/06 06:30:09;;;;;;;15.40;9.95;;;;;;;;;;8213295;28;20708;-62
2023/03/06 06:34:10;;;;;;;13.52;8.32;;;;;;;;;;8213345;28;20099;-62
2023/03/06 06:38:10;;;;;;;14.18;8.60;;;;;;;;;;8214177;28;20808;-62
2023/03/06 06:42:11;;;;;;;13.60;8.20;;;;;;;;;;8215181;28;20849;-61
2023/03/06 06:46:11;;;;;;;11.20;8.02;;;;;;;;;;8214763;28;20581;-61
2023/03/06 06:50:12;;;;;;;15.43;8.82;;;;;;;;;;8212930;28;20021;-61
2023/03/06 06:54:13;;;;;;;12.40;8.00;;;;;;;;;;8215467;28;20034;-61
2023/03/06 06:58:13;;;;;;;14.60;8.30;;;;;;;;;;8213477;28;20107;-61
2023/03/06 07:02:14;;;;;;;12.30;7.85;;;;;;;;;;8216530;28;20193;-61
2023/03/06 07:06:14;;;;;;;15.60;8.77;;;;;;;;;;8212106;28;20137;-61
2023/03/06 07:10:15;;;;;;;13.10;8.50;;;;;;;;;;8209537;28;20092;-61
2023/03/06 07:14:15;;;;;;;12.90;8.13;;;;;;;;;;8211988;28;20438;-61
2023/03/06 07:18:15;;;;;;;15.55;9.20;;;;;;;;;;8210162;28;20296;-61
2023/03/06 07:22:15;;;;;;;13.43;8.68;;;;;;;;;;8210885;28;20369;-61
2023/03/06 07:26:15;;;;;;;12.52;8.88;;;;;;;;;;8213856;28;20054;-62
2023/03/06 07:30:16;;;;;;;13.27;8.80;;;;;;;;;;8207665;28;20391;-61
2023/03/06 07:34:16;;;;;;;15.37;9.03;;;;;;;;;;8204704;28;20093;-61
2023/03/06 07:38:16;;;;;;;16.00;9.82;;;;;;;;;;8211302;28;20693;-62
2023/03/06 07:42:16;;;;;;;10.25;7.53;;;;;;;;;;8214620;28;20398;-61
2023/03/06 07:46:16;;;;;;;15.18;8.60;;;;;;;;;;8211568;28;20443;-62
2023/03/06 07:50:17;;;;;;;14.32;8.93;;;;;;;;;;8209914;28;20421;-61
2023/03/06 07:54:17;;;;;;;15.63;9.95;;;;;;;;;;8211814;28;20431;-61
2023/03/06 07:58:18;;;;;;;13.30;8.45;;;;;;;;;;8219153;28;20316;-61
2023/03/06 08:02:18;;;;;;;16.17;8.43;;;;;;;;;;8219766;28;20038;-61
2023/03/06 08:06:22;;;;;;;14.85;9.45;;;;;;;;;;8217344;28;20067;-62
2023/03/06 08:10:22;;;;;;;27.38;10.88;;;;;;;;;;8215719;28;20483;-62
2023/03/06 08:14:22;;;;;;;20.98;8.85;;;;;;;;;;8217456;28;20034;-61
2023/03/06 08:18:22;;;;;;;20.02;9.30;;;;;;;;;;8209437;28;20038;-61
2023/03/06 08:22:22;;;;;;;14.05;8.48;;;;;;;;;;8212183;28;20105;-61
2023/03/06 08:26:24;;;;;;;20.98;10.07;;;;;;;;;;8212928;28;20032;-61
2023/03/06 08:30:24;;;;;;;18.75;9.90;;;;;;;;;;8222283;28;20534;-62
2023/03/06 08:34:25;;;;;;;21.13;9.25;;;;;;;;;;8252331;28;20118;-61
2023/03/06 08:38:25;;;;;;;18.20;10.23;;;;;;;;;;8249573;28;20429;-61
2023/03/06 08:42:25;;;;;;;14.60;9.52;;;;;;;;;;8251914;28;20116;-61
2023/03/06 08:46:26;;;;;;;15.55;9.38;;;;;;;;;;8251861;28;20041;-62
2023/03/06 08:50:26;;;;;;;19.50;9.57;;;;;;;;;;8250112;28;20565;-62
2023/03/06 08:54:26;;;;;;;19.55;10.30;;;;;;;;;;8248431;28;20033;-62
2023/03/06 08:58:27;;;;;;;18.48;10.00;;;;;;;;;;8248295;28;20077;-62
2023/03/06 09:02:28;;;;;;;14.95;9.43;;;;;;;;;;8250618;28;20042;-61
2023/03/06 09:06:29;;;;;;;19.17;9.23;;;;;;;;;;8249072;28;20133;-61
2023/03/06 09:10:29;;;;;;;15.07;8.45;;;;;;;;;;8249544;28;20034;-61
2023/03/06 09:14:30;;;;;;;16.45;9.98;;;;;;;;;;8250659;28;20064;-62
2023/03/06 09:18:30;;;;;;;16.85;9.10;;;;;;;;;;8250230;28;20530;-61
2023/03/06 09:22:30;;;;;;;13.10;8.02;;;;;;;;;;8250851;28;21522;-62
2023/03/06 09:26:30;;;;;;;13.07;9.20;;;;;;;;;;8241158;28;20301;-61
2023/03/06 09:30:31;;;;;;;13.35;9.32;;;;;;;;;;8241496;28;20038;-62
2023/03/06 09:34:31;;;;;;;13.60;8.23;;;;;;;;;;8247074;28;20200;-61
2023/03/06 09:38:31;;;;;;;11.73;8.65;;;;;;;;;;8247871;28;20033;-62
2023/03/06 09:42:32;;;;;;;13.45;8.38;;;;;;;;;;8248464;28;20029;-62
2023/03/06 09:46:38;;;;;;;16.23;8.48;;;;;;;;;;8254856;28;20853;-62
2023/03/06 09:50:50;;;;;;;16.30;9.10;;;;;;;;;;8255277;28;20454;-61
2023/03/06 09:54:55;;;;;;;14.20;8.15;;;;;;;;;;8253072;28;20034;-61
2023/03/06 09:59:13;;;;;;;14.05;8.95;;;;;;;;;;8271662;28;20025;-62
2023/03/06 10:03:18;;;;;;;14.93;8.57;;;;;;;;;;8254642;28;20164;-62
2023/03/06 10:07:22;;;;;;;13.48;8.35;;;;;;;;;;8257586;28;20117;-61
2023/03/06 10:11:26;;;;;;;16.38;8.18;;;;;;;;;;8254576;28;20092;-62
2023/03/06 10:15:31;;;;;;;13.13;8.48;;;;;;;;;;8254865;28;20496;-62
2023/03/06 10:19:35;;;;;;;12.45;8.20;;;;;;;;;;8256606;28;20064;-62
2023/03/06 10:23:48;;;;;;;12.02;7.93;;;;;;;;;;8254211;28;20022;-62
2023/03/06 10:27:50;;;;;;;10.10;7.63;;;;;;;;;;8255118;28;20033;-62
2023/03/06 10:31:55;;;;;;;12.35;8.25;;;;;;;;;;8256837;28;20041;-62
2023/03/06 10:35:57;;;;;;;14.65;8.73;;;;;;;;;;8245450;28;20537;-62
2023/03/06 10:40:00;;;;;;;16.88;8.15;;;;;;;;;;8243524;28;20018;-62
2023/03/06 10:44:04;;;;;;;11.67;8.43;;;;;;;;;;8248921;28;20034;-62
2023/03/06 10:48:09;;;;;;;14.10;8.93;;;;;;;;;;8241554;28;20046;-62
2023/03/06 10:52:12;;;;;;;11.77;7.80;;;;;;;;;;8247756;28;20627;-62
2023/03/06 10:56:24;;;;;;;13.65;8.15;;;;;;;;;;8246417;28;20034;-61
2023/03/06 11:00:27;;;;;;;13.00;7.85;;;;;;;;;;8249119;28;20116;-62
2023/03/06 11:04:28;;;;;;;12.07;8.27;;;;;;;;;;8245156;28;20438;-62
2023/03/06 11:08:29;;;;;;;10.52;7.55;;;;;;;;;;8249913;28;20029;-62
2023/03/06 11:12:33;;;;;;;14.18;8.20;;;;;;;;;;8247122;28;20255;-62
2023/03/06 11:16:33;;;;;;;12.55;8.27;;;;;;;;;;8243026;28;20068;-62
2023/03/06 11:20:40;;;;;;;12.13;7.70;;;;;;;;;;8245636;28;20030;-62
2023/03/06 11:24:43;;;;;;;13.82;8.38;;;;;;;;;;8244928;28;20026;-62
2023/03/06 11:28:48;;;;;;;13.10;7.72;;;;;;;;;;8246379;28;20343;-62
2023/03/06 11:32:57;;;;;;;12.18;8.05;;;;;;;;;;8242782;28;20130;-62
2023/03/06 11:37:10;;;;;;;12.20;7.70;;;;;;;;;;8236896;28;20097;-62
2023/03/06 11:41:17;;;;;;;11.60;7.40;;;;;;;;;;8250713;28;20490;-62
2023/03/06 11:45:21;;;;;;;9.65;7.38;;;;;;;;;;8252419;28;20144;-62
2023/03/06 11:49:23;;;;;;;10.60;7.85;;;;;;;;;;8246029;28;20032;-62
2023/03/06 11:53:30;;;;;;;10.52;7.43;;;;;;;;;;8251978;28;20461;-62
2023/03/06 11:57:38;;;;;;;12.23;7.75;;;;;;;;;;8252449;28;20022;-63
2023/03/06 12:01:38;;;;;;;12.13;7.53;;;;;;;;;;8251718;28;20378;-62
2023/03/06 12:05:43;;;;;;;14.73;7.20;;;;;;;;;;8245932;28;20329;-62
2023/03/06 12:10:03;;;;;;;13.63;8.25;;;;;;;;;;8249880;28;20026;-62
2023/03/06 12:14:09;;;;;;;9.90;7.18;;;;;;;;;;8251518;28;20379;-62
2023/03/06 12:18:15;;;;;;;13.65;7.13;;;;;;;;;;8249953;28;20049;-62
2023/03/06 12:22:34;;;;;;;10.23;6.82;;;;;;;;;;8249836;28;20453;-62
2023/03/06 12:26:39;;;;;;;10.30;7.22;;;;;;;;;;8249414;28;20022;-62
2023/03/06 12:30:54;;;;;;;9.20;6.55;;;;;;;;;;8250187;28;20052;-62
2023/03/06 12:35:18;;;;;;;11.55;7.90;;;;;;;;;;8251914;28;20108;-62
2023/03/06 12:39:24;;;;;;;8.05;6.38;;;;;;;;;;8249729;28;20033;-62
2023/03/06 12:43:36;;;;;;;12.52;7.13;;;;;;;;;;8247433;28;20029;-62
2023/03/06 12:47:41;;;;;;;9.43;6.65;;;;;;;;;;8250159;28;20262;-62
2023/03/06 12:51:42;;;;;;;12.13;7.53;;;;;;;;;;8250810;28;20028;-62
2023/03/06 12:55:43;;;;;;;10.80;6.30;;;;;;;;;;8249386;28;20049;-62
2023/03/06 12:59:46;;;;;;;9.07;6.57;;;;;;;;;;8250396;28;20030;-62
2023/03/06 13:03:53;;;;;;;9.43;6.38;;;;;;;;;;8246385;28;20573;-63
2023/03/06 13:07:59;;;;;;;9.88;7.07;;;;;;;;;;8246125;28;20121;-62
2023/03/06 13:12:03;;;;;;;9.00;6.03;;;;;;;;;;8244955;28;20900;-62
2023/03/06 13:16:03;;;;;;;10.07;6.53;;;;;;;;;;8249263;28;20400;-62
2023/03/06 13:20:12;;;;;;;9.60;6.65;;;;;;;;;;8250376;28;20029;-62
2023/03/06 13:24:17;;;;;;;11.32;7.20;;;;;;;;;;8245127;28;20611;-62
2023/03/06 13:28:43;;;;;;;7.68;6.32;;;;;;;;;;8244993;28;20403;-61
2023/03/06 13:32:44;;;;;;;9.80;6.50;;;;;;;;;;8246289;28;20026;-62
2023/03/06 13:36:44;;;;;;;10.50;6.85;;;;;;;;;;8243234;28;20033;-62
2023/03/06 13:40:44;;;;;;;10.18;6.85;;;;;;;;;;8248592;28;20586;-62
2023/03/06 13:44:44;;;;;;;10.60;7.15;;;;;;;;;;8249034;28;20077;-62
2023/03/06 13:48:45;;;;;;;8.83;6.63;;;;;;;;;;8243181;28;20043;-62
2023/03/06 13:53:05;;;;;;;8.27;6.35;;;;;;;;;;8247214;28;20527;-62
2023/03/06 13:57:24;;;;;;;7.78;6.03;;;;;;;;;;8247005;28;20503;-62
2023/03/06 14:01:30;;;;;;;9.98;6.50;;;;;;;;;;8246649;28;20279;-62
2023/03/06 14:05:41;;;;;;;8.65;6.50;;;;;;;;;;8247965;28;20347;-61
2023/03/06 14:09:42;;;;;;;8.13;6.40;;;;;;;;;;8243940;28;20445;-61
2023/03/06 14:13:47;;;;;;;8.73;6.00;;;;;;;;;;8245420;28;21112;-61
2023/03/06 14:17:59;;;;;;;9.32;6.85;;;;;;;;;;8244335;28;20034;-61
2023/03/06 14:22:00;;;;;;;9.27;6.07;;;;;;;;;;8243872;28;20114;-61
2023/03/06 14:26:06;;;;;;;7.93;5.80;;;;;;;;;;8247214;28;20058;-61
2023/03/06 14:30:11;;;;;;;8.77;6.32;;;;;;;;;;8244603;28;20017;-62
2023/03/06 14:34:18;;;;;;;12.77;5.90;;;;;;;;;;8246937;28;20558;-62
2023/03/06 14:38:18;;;;;;;10.95;5.82;;;;;;;;;;8244749;28;20058;-61
2023/03/06 14:42:24;;;;;;;12.02;5.32;;;;;;;;;;8253336;28;20033;-61
2023/03/06 14:46:24;;;;;;;7.38;5.65;;;;;;;;;;8254784;28;20190;-62
2023/03/06 14:50:28;;;;;;;10.90;6.55;;;;;;;;;;8244108;28;20512;-61
2023/03/06 14:54:33;;;;;;;8.35;5.93;;;;;;;;;;8247468;28;20026;-62
2023/03/06 14:58:35;;;;;;;9.13;5.43;;;;;;;;;;8241914;28;20111;-61
2023/03/06 15:02:35;;;;;;;12.40;6.15;;;;;;;;;;8240508;28;20078;-61
2023/03/06 15:06:38;;;;;;;7.57;5.47;;;;;;;;;;8248021;28;20034;-61
2023/03/06 15:10:38;;;;;;;7.20;5.55;;;;;;;;;;8249787;28;20029;-61
2023/03/06 15:14:40;;;;;;;7.65;5.40;;;;;;;;;;8246137;28;20555;-61
2023/03/06 15:19:00;;;;;;;9.98;6.30;;;;;;;;;;8244499;28;20152;-61
2023/03/06 15:23:01;;;;;;;9.32;6.30;;;;;;;;;;8247920;28;20038;-61
2023/03/06 15:27:03;;;;;;;9.02;6.13;;;;;;;;;;8245012;28;20404;-62
2023/03/06 15:31:18;;;;;;;10.98;6.32;;;;;;;;;;8235574;28;20095;-62
2023/03/06 15:35:29;;;;;;;10.50;7.38;;;;;;;;;;8236817;28;20466;-61
2023/03/06 15:39:33;;;;;;;12.05;8.00;;;;;;;;;;8245649;28;20347;-61
2023/03/06 15:43:36;;;;;;;12.88;8.60;;;;;;;;;;8250760;28;20066;-61
2023/03/06 15:47:36;;;;;;;15.48;8.43;;;;;;;;;;8240293;28;20037;-61
2023/03/06 15:51:36;;;;;;;12.02;8.40;;;;;;;;;;8241892;28;20475;-61
2023/03/06 15:55:37;;;;;;;12.30;7.97;;;;;;;;;;8247253;28;20533;-61
2023/03/06 15:59:42;;;;;;;12.45;8.60;;;;;;;;;;8244449;28;20057;-61
2023/03/06 16:03:43;;;;;;;14.13;9.30;;;;;;;;;;8245089;28;20045;-61
2023/03/06 16:07:43;;;;;;;13.75;8.82;;;;;;;;;;8244139;28;20089;-61
2023/03/06 16:11:43;;;;;;;13.10;9.52;;;;;;;;;;8243017;28;20479;-61
2023/03/06 16:15:46;;;;;;;14.02;9.07;;;;;;;;;;8247942;28;20596;-62
2023/03/06 16:19:46;;;;;;;12.30;8.68;;;;;;;;;;8251166;28;20026;-62
2023/03/06 16:23:46;;;;;;;13.48;8.52;;;;;;;;;;8251445;28;20598;-61
2023/03/06 16:27:54;;;;;;;15.32;9.02;;;;;;;;;;8260778;28;20017;-62
2023/03/06 16:31:55;;;;;;;15.07;9.35;;;;;;;;;;8249403;28;20038;-62
2023/03/06 16:35:55;;;;;;;15.27;9.10;;;;;;;;;;8251069;28;20589;-61
2023/03/06 16:39:55;;;;;;;11.85;8.50;;;;;;;;;;8249273;28;20041;-62
2023/03/06 16:43:55;;;;;;;15.02;8.40;;;;;;;;;;8250704;28;20498;-61
2023/03/06 16:47:56;;;;;;;12.70;8.88;;;;;;;;;;8238894;28;20064;-62
2023/03/06 16:51:56;;;;;;;13.95;7.22;;;;;;;;;;8247151;28;20030;-61
2023/03/06 16:55:56;;;;;;;11.35;8.20;;;;;;;;;;8246921;28;20650;-62
2023/03/06 16:59:56;;;;;;;13.02;7.53;;;;;;;;;;8246235;28;20026;-62
2023/03/06 17:03:56;;;;;;;10.77;7.32;;;;;;;;;;8244022;28;20042;-62
2023/03/06 17:07:57;;;;;;;12.80;7.90;;;;;;;;;;8242833;28;20029;-62
2023/03/06 17:11:57;;;;;;;12.32;8.23;;;;;;;;;;8244174;28;20311;-62
2023/03/06 17:15:58;;;;;;;11.88;8.02;;;;;;;;;;8245527;28;20049;-62
2023/03/06 17:19:58;;;;;;;11.20;7.90;;;;;;;;;;8248823;28;20144;-61
2023/03/06 17:24:00;;;;;;;14.15;8.43;;;;;;;;;;8250817;28;20092;-62
2023/03/06 17:28:01;;;;;;;11.90;8.45;;;;;;;;;;8245775;28;20057;-62
2023/03/06 17:32:01;;;;;;;14.25;9.35;;;;;;;;;;8241784;28;20459;-61
2023/03/06 17:36:01;;;;;;;14.32;9.57;;;;;;;;;;8245529;28;20030;-62
2023/03/06 17:40:02;;;;;;;15.40;9.18;;;;;;;;;;8243792;28;20301;-62
2023/03/06 17:44:02;;;;;;;14.55;9.90;;;;;;;;;;8244827;28;20037;-61
2023/03/06 17:48:02;;;;;;;14.82;9.55;;;;;;;;;;8239913;28;20431;-61
2023/03/06 17:52:04;;;;;;;13.68;9.35;;;;;;;;;;8242809;28;20026;-61
2023/03/06 17:56:06;;;;;;;13.07;8.73;;;;;;;;;;8245099;28;20115;-61
2023/03/06 18:00:07;;;;;;;14.60;9.48;;;;;;;;;;8241283;28;20129;-62
2023/03/06 18:04:07;;;;;;;15.60;9.07;;;;;;;;;;8244263;28;20050;-61
2023/03/06 18:08:09;;;;;;;16.75;10.85;;;;;;;;;;8243067;28;20430;-61
2023/03/06 18:12:09;;;;;;;16.52;9.95;;;;;;;;;;8243091;28;20040;-61
2023/03/06 18:16:11;;;;;;;19.27;10.40;;;;;;;;;;8242852;28;20040;-61
2023/03/06 18:20:11;;;;;;;17.40;10.38;;;;;;;;;;8239796;28;20354;-61
2023/03/06 18:24:12;;;;;;;15.57;9.82;;;;;;;;;;8240335;28;20413;-61
2023/03/06 18:28:12;;;;;;;17.42;10.75;;;;;;;;;;8243045;28;20050;-61
2023/03/06 18:32:13;;;;;;;17.30;11.07;;;;;;;;;;8244290;28;20057;-61
2023/03/06 18:36:13;;;;;;;17.58;10.60;;;;;;;;;;8244699;28;20588;-61
2023/03/06 18:40:13;;;;;;;16.90;11.48;;;;;;;;;;8243755;28;20632;-61
2023/03/06 18:44:15;;;;;;;19.23;10.93;;;;;;;;;;8244169;28;20142;-61
2023/03/06 18:48:15;;;;;;;16.80;10.77;;;;;;;;;;8240080;28;20034;-61
2023/03/06 18:52:15;;;;;;;21.15;11.10;;;;;;;;;;8243001;28;20121;-61
2023/03/06 18:56:16;;;;;;;16.27;10.40;;;;;;;;;;8241784;28;20481;-61
2023/03/06 19:00:17;;;;;;;16.73;10.77;;;;;;;;;;8239812;28;20046;-61
2023/03/06 19:04:17;;;;;;;16.60;10.27;;;;;;;;;;8242939;28;20470;-61
2023/03/06 19:08:17;;;;;;;17.30;11.15;;;;;;;;;;8240327;28;20022;-61
2023/03/06 19:12:17;;;;;;;16.45;10.52;;;;;;;;;;8242312;28;20478;-61
2023/03/06 19:16:18;;;;;;;17.38;10.40;;;;;;;;;;8242422;28;20041;-61
2023/03/06 19:20:19;;;;;;;18.92;11.02;;;;;;;;;;8241530;28;20034;-61
2023/03/06 19:24:19;;;;;;;17.67;10.60;;;;;;;;;;8240223;28;20121;-62
2023/03/06 19:28:19;;;;;;;14.80;9.95;;;;;;;;;;8242801;28;20454;-61
2023/03/06 19:32:19;;;;;;;17.27;11.15;;;;;;;;;;8243084;28;20084;-61
2023/03/06 19:36:25;;;;;;;19.70;12.30;;;;;;;;;;8237586;28;20397;-61
2023/03/06 19:40:25;;;;;;;18.98;11.98;;;;;;;;;;8240459;28;20390;-61
2023/03/06 19:44:25;;;;;;;18.08;12.25;;;;;;;;;;8240805;28;20026;-61
2023/03/06 19:48:25;;;;;;;19.85;12.60;;;;;;;;;;8237444;28;20070;-61
2023/03/06 19:52:26;;;;;;;19.88;12.15;;;;;;;;;;8241351;28;20282;-61
2023/03/06 19:56:27;;;;;;;22.52;13.32;;;;;;;;;;8248544;28;20152;-61
2023/03/06 20:00:28;;;;;;;21.95;13.23;;;;;;;;;;8245868;28;20085;-61
2023/03/06 20:04:32;;;;;;;20.15;12.68;;;;;;;;;;8247011;28;20079;-61
2023/03/06 20:08:32;;;;;;;20.15;12.35;;;;;;;;;;8247261;28;20891;-61
2023/03/06 20:12:32;;;;;;;21.75;12.55;;;;;;;;;;8247196;28;20033;-61
2023/03/06 20:16:33;;;;;;;20.58;13.15;;;;;;;;;;8246270;28;20086;-61
2023/03/06 20:20:33;;;;;;;17.67;11.35;;;;;;;;;;8244638;28;20041;-61
2023/03/06 20:24:33;;;;;;;18.10;11.88;;;;;;;;;;8246383;28;20046;-61
2023/03/06 20:28:34;;;;;;;18.77;12.50;;;;;;;;;;8246313;28;20049;-61
2023/03/06 20:32:34;;;;;;;18.40;11.13;;;;;;;;;;8244871;28;20129;-61
2023/03/06 20:36:38;;;;;;;18.83;11.13;;;;;;;;;;8245229;28;20030;-61
2023/03/06 20:40:39;;;;;;;20.33;10.90;;;;;;;;;;8243935;28;20120;-61
2023/03/06 20:44:39;;;;;;;19.27;12.13;;;;;;;;;;8245003;28;20677;-61
2023/03/06 20:48:40;;;;;;;19.38;12.55;;;;;;;;;;8242987;28;20246;-61
2023/03/06 20:52:40;;;;;;;19.48;11.30;;;;;;;;;;8248333;28;20049;-61
2023/03/06 20:56:43;;;;;;;21.20;11.57;;;;;;;;;;8245725;28;20048;-61
2023/03/06 21:00:43;;;;;;;22.38;11.98;;;;;;;;;;8246311;28;20058;-61
2023/03/06 21:04:44;;;;;;;19.52;12.05;;;;;;;;;;8240095;28;20553;-61
2023/03/06 21:08:44;;;;;;;20.05;12.10;;;;;;;;;;8245057;28;20149;-61
2023/03/06 21:12:44;;;;;;;21.73;13.43;;;;;;;;;;8245370;28;20279;-61
2023/03/06 21:16:44;;;;;;;26.02;15.88;;;;;;;;;;8244368;28;20347;-61
2023/03/06 21:20:44;;;;;;;24.13;14.63;;;;;;;;;;8245929;28;20018;-61
2023/03/06 21:24:44;;;;;;;25.15;14.93;;;;;;;;;;8244536;28;20033;-61
2023/03/06 21:28:45;;;;;;;24.55;15.05;;;;;;;;;;8246809;28;20072;-61
2023/03/06 21:32:45;;;;;;;27.77;15.80;;;;;;;;;;8249897;28;20045;-61
2023/03/06 21:36:45;;;;;;;24.40;15.10;;;;;;;;;;8249955;28;20045;-61
2023/03/06 21:40:45;;;;;;;28.30;15.23;;;;;;;;;;8247215;28;20776;-61
2023/03/06 21:44:45;;;;;;;27.30;16.48;;;;;;;;;;8249565;28;20388;-61
2023/03/06 21:48:46;;;;;;;27.38;15.40;;;;;;;;;;8247887;28;20034;-61
2023/03/06 21:52:46;;;;;;;26.90;15.13;;;;;;;;;;8251657;28;20640;-61
2023/03/06 21:56:46;;;;;;;26.85;16.67;;;;;;;;;;8247252;28;20365;-61
2023/03/06 22:00:46;;;;;;;32.00;16.98;;;;;;;;;;8245243;28;20150;-61
2023/03/06 22:04:52;;;;;;;30.30;17.38;;;;;;;;;;8247483;28;20065;-61
2023/03/06 22:08:53;;;;;;;27.17;16.40;;;;;;;;;;8245239;28;20108;-61
2023/03/06 22:12:54;;;;;;;28.70;17.02;;;;;;;;;;8248677;28;20844;-61
2023/03/06 22:16:55;;;;;;;31.75;18.42;;;;;;;;;;8246141;28;20033;-61
2023/03/06 22:20:55;;;;;;;28.75;16.67;;;;;;;;;;8250009;28;20112;-61
2023/03/06 22:24:55;;;;;;;30.38;17.77;;;;;;;;;;8246847;28;20583;-61
2023/03/06 22:28:56;;;;;;;33.58;19.13;;;;;;;;;;8246816;28;20033;-62
2023/03/06 22:32:56;;;;;;;31.98;18.30;;;;;;;;;;8244753;28;20542;-61
2023/03/06 22:36:56;;;;;;;27.42;15.60;;;;;;;;;;8246067;28;20083;-61
2023/03/06 22:40:57;;;;;;;30.50;16.35;;;;;;;;;;8250826;28;20034;-61
2023/03/06 22:44:57;;;;;;;27.33;16.10;;;;;;;;;;8249199;28;20511;-61
2023/03/06 22:48:58;;;;;;;25.80;15.52;;;;;;;;;;8249784;28;20042;-62
2023/03/06 22:52:58;;;;;;;28.67;17.25;;;;;;;;;;8251503;28;20034;-61
2023/03/06 22:56:58;;;;;;;30.48;17.88;;;;;;;;;;8246327;28;20470;-61
2023/03/06 23:01:02;;;;;;;30.58;16.98;;;;;;;;;;8244905;28;20438;-61
2023/03/06 23:05:02;;;;;;;28.90;16.70;;;;;;;;;;8248220;28;20033;-62
2023/03/06 23:09:07;;;;;;;30.07;17.07;;;;;;;;;;8245096;28;20026;-61
2023/03/06 23:13:07;;;;;;;29.55;17.17;;;;;;;;;;8252092;28;20833;-61
2023/03/06 23:17:08;;;;;;;29.88;16.85;;;;;;;;;;8253908;28;20085;-61
2023/03/06 23:21:09;;;;;;;25.77;15.55;;;;;;;;;;8252139;28;20022;-61
2023/03/06 23:25:09;;;;;;;33.58;18.60;;;;;;;;;;8251883;28;20049;-61
2023/03/06 23:29:09;;;;;;;30.17;17.17;;;;;;;;;;8258282;28;20030;-61
2023/03/06 23:33:09;;;;;;;28.23;16.10;;;;;;;;;;8261569;28;20046;-61
2023/03/06 23:37:10;;;;;;;27.65;16.23;;;;;;;;;;8261934;28;20041;-61
2023/03/06 23:41:11;;;;;;;28.95;16.45;;;;;;;;;;8258600;28;20808;-62
2023/03/06 23:45:12;;;;;;;27.35;16.55;;;;;;;;;;8259629;28;20056;-62
2023/03/06 23:49:12;;;;;;;29.55;16.55;;;;;;;;;;8257206;28;20029;-61